Time;durP1;ratioP1;P1;durP2;ratioP2;P2;SDS_P1;SDS_P2;PMS_P1;PMS_P2;Temp;Humidity;BMP_temperature;BMP_pressure;BME280_temperature;BME280_humidity;BME280_pressure;Samples;Min_cycle;Max_cycle;Signal;HPM_P1;HPM_P2
2021/09/24 00:00:57;;;;;;;14.97;3.77;;;14.10;99.90;;;;;;6004527;23;20604;-72
2021/09/24 00:03:27;;;;;;;11.30;3.00;;;14.10;99.90;;;;;;5979989;23;20558;-73
2021/09/24 00:05:53;;;;;;;13.80;3.73;;;13.90;99.90;;;;;;6002737;23;20581;-72
2021/09/24 00:08:18;;;;;;;12.57;3.73;;;14.00;99.90;;;;;;6004884;23;20649;-73
2021/09/24 00:10:49;;;;;;;9.17;3.70;;;13.90;99.90;;;;;;6013516;23;20183;-73
2021/09/24 00:13:24;;;;;;;13.23;3.73;;;13.90;99.90;;;;;;5993398;23;20165;-73
2021/09/24 00:15:50;;;;;;;15.17;4.43;;;13.90;99.90;;;;;;6002973;23;20595;-73
2021/09/24 00:18:16;;;;;;;15.57;3.23;;;13.90;99.90;;;;;;6004371;23;21166;-73
2021/09/24 00:20:42;;;;;;;11.30;4.20;;;13.80;99.90;;;;;;6005822;23;20629;-73
2021/09/24 00:23:07;;;;;;;10.60;2.40;;;13.90;99.90;;;;;;5980740;23;20161;-73
2021/09/24 00:25:33;;;;;;;10.77;2.83;;;13.80;99.90;;;;;;6004726;23;20164;-73
2021/09/24 00:27:59;;;;;;;8.10;2.90;;;13.80;99.90;;;;;;6020508;23;20183;-73
2021/09/24 00:30:27;;;;;;;7.87;2.27;;;13.80;99.90;;;;;;6024227;23;20163;-73
2021/09/24 00:32:53;;;;;;;11.00;2.83;;;13.80;99.90;;;;;;6009974;23;20548;-73
2021/09/24 00:35:18;;;;;;;12.90;5.03;;;13.80;99.90;;;;;;6007945;23;20534;-73
2021/09/24 00:37:46;;;;;;;13.13;3.20;;;13.80;99.90;;;;;;5981836;23;20200;-73
2021/09/24 00:40:17;;;;;;;15.63;3.57;;;13.80;99.90;;;;;;5982988;23;20196;-73
2021/09/24 00:42:45;;;;;;;19.73;3.60;;;13.70;99.90;;;;;;5981588;23;20605;-73
2021/09/24 00:45:14;;;;;;;17.10;3.50;;;13.70;99.90;;;;;;6005752;23;20534;-73
2021/09/24 00:47:39;;;;;;;14.40;3.77;;;13.70;99.90;;;;;;6006207;23;20684;-73
2021/09/24 00:50:10;;;;;;;12.27;3.60;;;13.70;99.90;;;;;;6005691;23;20546;-73
2021/09/24 00:52:38;;;;;;;9.30;2.90;;;13.70;99.90;;;;;;6005394;23;20150;-73
2021/09/24 00:55:05;;;;;;;13.60;3.60;;;13.60;99.90;;;;;;5981696;23;20561;-73
2021/09/24 00:57:33;;;;;;;12.87;2.70;;;13.50;99.90;;;;;;5980524;23;20951;-73
2021/09/24 01:00:06;;;;;;;14.30;4.03;;;13.40;99.90;;;;;;6005010;23;20596;-73
2021/09/24 01:02:31;;;;;;;12.77;3.70;;;13.30;99.90;;;;;;6006269;23;20941;-73
2021/09/24 01:04:59;;;;;;;14.50;3.70;;;13.30;99.90;;;;;;6006573;23;20538;-73
2021/09/24 01:07:25;;;;;;;11.00;3.30;;;13.30;99.90;;;;;;6006234;23;20690;-73
2021/09/24 01:09:51;;;;;;;14.53;3.40;;;13.30;99.90;;;;;;6005971;23;20566;-73
2021/09/24 01:12:16;;;;;;;12.93;3.07;;;13.30;99.90;;;;;;6006163;23;20546;-73
2021/09/24 01:14:42;;;;;;;14.20;3.70;;;13.40;99.90;;;;;;6005658;23;20164;-73
2021/09/24 01:17:10;;;;;;;11.87;3.13;;;13.30;99.90;;;;;;6004876;23;20705;-73
2021/09/24 01:19:38;;;;;;;12.87;3.07;;;13.30;99.90;;;;;;6005233;23;20185;-73
2021/09/24 01:22:04;;;;;;;14.83;3.47;;;13.20;99.90;;;;;;6005830;23;20621;-73
2021/09/24 01:24:29;;;;;;;10.90;3.10;;;13.20;99.90;;;;;;5982082;23;20593;-73
2021/09/24 01:26:56;;;;;;;14.43;3.20;;;13.20;99.90;;;;;;5980498;23;20205;-73
2021/09/24 01:29:27;;;;;;;9.90;3.07;;;13.10;99.90;;;;;;5981308;23;20177;-73
2021/09/24 01:31:52;;;;;;;16.10;3.47;;;13.10;99.90;;;;;;6020502;23;20518;-73
2021/09/24 01:34:20;;;;;;;12.70;3.20;;;13.10;99.90;;;;;;6013067;23;20789;-73
2021/09/24 01:36:46;;;;;;;12.13;3.03;;;13.10;99.90;;;;;;5980424;23;20568;-73
2021/09/24 01:39:11;;;;;;;12.90;3.77;;;13.10;99.90;;;;;;6006956;23;20602;-73
2021/09/24 01:41:47;;;;;;;12.33;3.67;;;13.10;99.90;;;;;;5981093;23;20762;-73
2021/09/24 01:44:13;;;;;;;11.67;3.80;;;13.00;99.90;;;;;;6006276;23;20164;-73
2021/09/24 01:46:45;;;;;;;14.90;3.30;;;12.90;99.90;;;;;;6005387;23;20610;-73
2021/09/24 01:49:14;;;;;;;11.00;3.70;;;12.90;99.90;;;;;;5981670;23;20195;-73
2021/09/24 01:51:43;;;;;;;11.40;3.30;;;12.80;99.90;;;;;;6006034;23;20562;-73
2021/09/24 01:54:13;;;;;;;17.70;4.23;;;12.90;99.90;;;;;;6006672;23;20554;-73
2021/09/24 01:56:38;;;;;;;10.13;3.40;;;12.90;99.90;;;;;;6005585;23;20597;-73
2021/09/24 01:59:05;;;;;;;14.60;3.47;;;12.90;99.90;;;;;;5980254;23;20619;-74
2021/09/24 02:01:30;;;;;;;13.10;2.90;;;12.90;99.90;;;;;;6005434;23;20153;-73
2021/09/24 02:03:56;;;;;;;11.37;4.30;;;12.90;99.90;;;;;;6005562;23;20534;-73
2021/09/24 02:06:22;;;;;;;10.07;3.40;;;12.90;99.90;;;;;;6005473;23;20271;-73
2021/09/24 02:08:48;;;;;;;10.90;3.50;;;12.90;99.90;;;;;;6006763;23;20694;-73
2021/09/24 02:11:16;;;;;;;15.00;3.60;;;12.90;99.90;;;;;;6006665;23;20573;-73
2021/09/24 02:13:42;;;;;;;14.00;3.70;;;12.90;99.90;;;;;;6006101;23;20164;-73
2021/09/24 02:16:10;;;;;;;11.80;3.03;;;12.90;99.90;;;;;;6005893;23;20729;-73
2021/09/24 02:18:37;;;;;;;13.87;4.00;;;12.90;99.90;;;;;;6004266;23;20617;-73
2021/09/24 02:21:02;;;;;;;12.80;4.13;;;12.90;99.90;;;;;;6006431;23;20546;-73
2021/09/24 02:23:30;;;;;;;11.00;2.93;;;12.90;99.90;;;;;;6006057;23;20621;-73
2021/09/24 02:25:56;;;;;;;11.93;3.00;;;13.00;99.90;;;;;;6014019;23;20236;-72
2021/09/24 02:28:24;;;;;;;14.40;3.37;;;13.00;99.90;;;;;;5991339;23;20633;-73
2021/09/24 02:30:49;;;;;;;13.93;3.40;;;12.80;99.90;;;;;;5980720;23;20491;-73
2021/09/24 02:33:21;;;;;;;12.63;3.33;;;12.80;99.90;;;;;;6006040;23;20546;-73
2021/09/24 02:35:49;;;;;;;16.33;3.90;;;12.70;99.90;;;;;;6004139;23;20196;-73
2021/09/24 02:38:15;;;;;;;14.43;3.40;;;12.80;99.90;;;;;;6006454;23;20627;-73
2021/09/24 02:40:46;;;;;;;15.13;3.83;;;12.80;99.90;;;;;;6005954;23;20583;-73
2021/09/24 02:43:12;;;;;;;10.03;3.20;;;12.90;99.90;;;;;;6006103;23;20209;-73
2021/09/24 02:45:37;;;;;;;11.50;2.80;;;12.90;99.90;;;;;;6005282;23;20744;-73
2021/09/24 02:48:03;;;;;;;13.93;3.37;;;12.80;99.90;;;;;;6005598;23;20185;-73
2021/09/24 02:50:28;;;;;;;13.10;3.53;;;12.80;99.90;;;;;;6005244;23;20169;-73
2021/09/24 02:52:57;;;;;;;19.70;3.33;;;12.80;99.90;;;;;;6004295;23;20203;-73
2021/09/24 02:55:25;;;;;;;13.73;2.97;;;12.80;99.90;;;;;;5980219;23;20161;-73
2021/09/24 02:57:50;;;;;;;15.20;3.60;;;12.80;99.90;;;;;;5980910;23;20624;-73
2021/09/24 03:00:16;;;;;;;11.07;3.27;;;12.70;99.90;;;;;;6005524;23;21135;-74
2021/09/24 03:02:42;;;;;;;11.20;3.50;;;12.70;99.90;;;;;;6005818;23;20153;-73
2021/09/24 03:05:16;;;;;;;8.00;2.87;;;12.70;99.90;;;;;;6005447;23;20545;-74
2021/09/24 03:07:44;;;;;;;12.87;3.83;;;12.70;99.90;;;;;;6005417;23;20235;-74
2021/09/24 03:10:14;;;;;;;12.20;2.90;;;12.60;99.90;;;;;;6005917;23;20596;-74
2021/09/24 03:12:40;;;;;;;13.53;4.00;;;12.60;99.90;;;;;;5981258;23;20576;-74
2021/09/24 03:15:12;;;;;;;17.87;3.60;;;12.60;99.90;;;;;;6004729;23;20530;-73
2021/09/24 03:17:37;;;;;;;15.83;3.17;;;12.60;99.90;;;;;;6007031;23;20678;-74
2021/09/24 03:20:05;;;;;;;13.70;4.23;;;12.50;99.90;;;;;;6028053;23;20569;-74
2021/09/24 03:22:30;;;;;;;11.40;3.77;;;12.50;99.90;;;;;;6022368;23;20237;-74
2021/09/24 03:24:59;;;;;;;15.20;4.03;;;12.50;99.90;;;;;;5983139;23;20668;-73
2021/09/24 03:27:25;;;;;;;10.00;2.80;;;12.50;99.90;;;;;;6005463;23;20272;-73
2021/09/24 03:29:53;;;;;;;10.47;3.23;;;12.50;99.90;;;;;;5980307;23;20565;-73
2021/09/24 03:32:20;;;;;;;13.63;3.43;;;12.50;99.90;;;;;;5980373;23;20188;-73
2021/09/24 03:34:47;;;;;;;14.77;4.30;;;12.40;99.90;;;;;;5978574;23;20593;-73
2021/09/24 03:37:13;;;;;;;14.00;3.50;;;12.40;99.90;;;;;;6005214;23;20613;-73
2021/09/24 03:39:38;;;;;;;13.60;3.20;;;12.40;99.90;;;;;;6004605;23;20611;-73
2021/09/24 03:42:04;;;;;;;15.60;3.67;;;12.40;99.90;;;;;;5979338;23;20172;-73
2021/09/24 03:44:30;;;;;;;11.43;3.43;;;12.30;99.90;;;;;;6005107;23;20164;-73
2021/09/24 03:46:56;;;;;;;14.67;3.30;;;12.30;99.90;;;;;;5978001;23;20602;-73
2021/09/24 03:49:23;;;;;;;14.40;3.40;;;12.30;99.90;;;;;;6005604;23;20588;-73
2021/09/24 03:51:49;;;;;;;14.63;4.23;;;12.30;99.90;;;;;;6004086;23;20183;-73
2021/09/24 03:54:17;;;;;;;11.83;3.83;;;12.30;99.90;;;;;;6003512;23;20573;-73
2021/09/24 03:56:43;;;;;;;18.53;4.97;;;12.30;99.90;;;;;;6003568;23;20864;-73
2021/09/24 03:59:12;;;;;;;16.10;3.80;;;12.30;99.90;;;;;;6003218;23;20624;-72
2021/09/24 04:01:38;;;;;;;15.37;3.00;;;12.30;99.90;;;;;;5979573;23;20622;-73
2021/09/24 04:04:04;;;;;;;13.93;3.30;;;12.30;99.90;;;;;;5979639;23;20569;-73
2021/09/24 04:06:30;;;;;;;12.77;4.00;;;12.30;99.90;;;;;;6004775;23;20760;-73
2021/09/24 04:08:58;;;;;;;13.83;3.40;;;12.20;99.90;;;;;;6005745;23;20172;-72
2021/09/24 04:11:24;;;;;;;13.40;4.10;;;12.30;99.90;;;;;;5980650;23;20280;-73
2021/09/24 04:13:50;;;;;;;9.50;3.50;;;12.30;99.90;;;;;;6005266;23;20570;-74
2021/09/24 04:16:16;;;;;;;11.73;3.63;;;12.40;99.90;;;;;;6005232;23;20228;-73
2021/09/24 04:18:44;;;;;;;19.93;3.73;;;12.40;99.90;;;;;;6004783;23;20959;-73
2021/09/24 04:21:12;;;;;;;13.17;5.07;;;12.50;99.90;;;;;;6003629;23;20193;-73
2021/09/24 04:23:40;;;;;;;13.03;3.80;;;12.50;99.90;;;;;;6004758;23;20546;-73
2021/09/24 04:26:08;;;;;;;11.07;3.60;;;12.40;99.90;;;;;;5979767;23;20592;-73
2021/09/24 04:28:36;;;;;;;16.57;3.13;;;12.40;99.90;;;;;;6006788;23;20575;-74
2021/09/24 04:31:04;;;;;;;13.63;3.33;;;12.40;99.90;;;;;;6003647;23;20541;-74
2021/09/24 04:33:29;;;;;;;14.07;4.00;;;12.40;99.90;;;;;;6006794;23;20621;-74
2021/09/24 04:35:58;;;;;;;9.67;2.90;;;12.40;99.90;;;;;;5979263;23;20581;-74
2021/09/24 04:38:26;;;;;;;9.63;3.87;;;12.40;99.90;;;;;;6006136;23;20521;-74
2021/09/24 04:40:52;;;;;;;13.30;3.57;;;12.40;99.90;;;;;;6008720;23;20879;-73
2021/09/24 04:43:17;;;;;;;13.87;3.83;;;12.40;99.90;;;;;;6029857;23;20577;-73
2021/09/24 04:45:43;;;;;;;9.63;3.33;;;12.40;99.90;;;;;;6013488;23;20264;-74
2021/09/24 04:48:08;;;;;;;16.37;3.53;;;12.50;99.90;;;;;;6006941;23;20467;-73
2021/09/24 04:50:37;;;;;;;11.60;2.93;;;12.50;99.90;;;;;;5981166;23;20175;-73
2021/09/24 04:53:04;;;;;;;15.53;3.50;;;12.50;99.90;;;;;;6006032;23;20613;-73
2021/09/24 04:55:30;;;;;;;9.77;3.17;;;12.50;99.90;;;;;;6001510;23;20539;-74
2021/09/24 04:57:56;;;;;;;7.03;3.23;;;12.50;99.90;;;;;;6003956;23;20628;-74
2021/09/24 05:00:21;;;;;;;11.83;3.10;;;12.50;99.90;;;;;;6004493;23;20189;-74
2021/09/24 05:02:47;;;;;;;12.30;3.90;;;12.50;99.90;;;;;;6004344;23;20236;-73
2021/09/24 05:05:13;;;;;;;18.17;3.63;;;12.50;99.90;;;;;;5975681;23;20172;-75
2021/09/24 05:07:38;;;;;;;16.13;3.90;;;12.50;99.90;;;;;;5971436;23;20209;-75
2021/09/24 05:10:05;;;;;;;19.60;4.03;;;12.50;99.90;;;;;;5972077;23;20184;-75
2021/09/24 05:12:33;;;;;;;11.60;3.30;;;12.50;99.90;;;;;;5995667;23;20153;-75
2021/09/24 05:14:59;;;;;;;9.77;3.00;;;12.50;99.90;;;;;;6004268;23;21264;-74
2021/09/24 05:17:25;;;;;;;13.07;3.00;;;12.50;99.90;;;;;;6003147;23;21222;-73
2021/09/24 05:19:51;;;;;;;8.10;3.27;;;12.50;99.90;;;;;;6006194;23;20598;-74
2021/09/24 05:22:17;;;;;;;11.67;3.90;;;12.50;99.90;;;;;;6002036;23;20248;-73
2021/09/24 05:24:42;;;;;;;11.80;3.60;;;12.40;99.90;;;;;;5977384;23;20665;-73
2021/09/24 05:27:10;;;;;;;12.03;3.73;;;12.40;99.90;;;;;;6000578;23;20213;-73
2021/09/24 05:29:35;;;;;;;11.80;3.60;;;12.40;99.90;;;;;;5977815;23;20643;-73
2021/09/24 05:32:06;;;;;;;12.00;3.43;;;12.40;99.90;;;;;;6004417;23;20545;-73
2021/09/24 05:34:31;;;;;;;12.37;3.20;;;12.40;99.90;;;;;;6004874;23;20168;-73
2021/09/24 05:36:57;;;;;;;9.10;3.00;;;12.50;99.90;;;;;;6005080;23;20608;-73
2021/09/24 05:39:22;;;;;;;8.63;3.03;;;12.50;99.90;;;;;;6006707;23;20180;-73
2021/09/24 05:41:48;;;;;;;13.83;3.80;;;12.50;99.90;;;;;;6006958;23;20164;-73
2021/09/24 05:44:13;;;;;;;12.13;3.27;;;12.50;99.90;;;;;;6006761;23;20157;-73
2021/09/24 05:46:41;;;;;;;8.10;3.20;;;12.50;99.90;;;;;;6005780;23;20201;-73
2021/09/24 05:49:08;;;;;;;12.43;4.10;;;12.50;99.90;;;;;;6006561;23;20172;-73
2021/09/24 05:51:35;;;;;;;13.73;3.57;;;12.50;99.90;;;;;;6007046;23;20533;-73
2021/09/24 05:54:01;;;;;;;11.80;3.80;;;12.50;99.90;;;;;;6007079;23;20573;-73
2021/09/24 05:56:26;;;;;;;9.77;3.90;;;12.50;99.90;;;;;;6005055;23;20598;-73
2021/09/24 05:58:52;;;;;;;12.73;3.87;;;12.60;99.90;;;;;;6006182;23;20184;-73
2021/09/24 06:01:18;;;;;;;14.50;4.47;;;12.60;99.90;;;;;;6006550;23;20161;-73
2021/09/24 06:03:43;;;;;;;12.87;3.67;;;12.60;99.90;;;;;;6001852;23;20281;-74
2021/09/24 06:06:09;;;;;;;14.10;5.17;;;12.70;99.90;;;;;;5975260;23;20226;-73
2021/09/24 06:08:34;;;;;;;13.47;3.47;;;12.70;99.90;;;;;;6007068;23;20318;-73
2021/09/24 06:11:00;;;;;;;11.73;3.67;;;12.80;99.90;;;;;;6028953;23;20177;-74
2021/09/24 06:13:25;;;;;;;8.97;3.77;;;12.80;99.90;;;;;;6000431;23;20172;-73
2021/09/24 06:15:51;;;;;;;11.77;3.97;;;12.90;99.90;;;;;;6015105;23;20233;-73
2021/09/24 06:18:16;;;;;;;10.27;3.97;;;13.00;99.90;;;;;;5982591;23;20204;-73
2021/09/24 06:20:42;;;;;;;12.40;3.70;;;13.00;99.90;;;;;;6006129;23;20762;-72
2021/09/24 06:23:08;;;;;;;11.70;3.60;;;13.00;99.90;;;;;;5979212;23;20270;-73
2021/09/24 06:25:34;;;;;;;10.00;3.60;;;13.10;99.90;;;;;;6004892;23;20545;-73
2021/09/24 06:27:59;;;;;;;14.60;3.47;;;13.10;99.90;;;;;;6005666;23;20177;-73
2021/09/24 06:30:26;;;;;;;9.40;2.73;;;13.10;99.90;;;;;;5980566;23;20165;-73
2021/09/24 06:32:52;;;;;;;13.73;3.40;;;13.10;99.90;;;;;;6006356;23;20693;-72
2021/09/24 06:35:18;;;;;;;10.43;3.33;;;13.20;99.90;;;;;;6023363;23;20617;-72
2021/09/24 06:37:44;;;;;;;11.53;3.57;;;13.30;99.90;;;;;;6004757;23;20601;-72
2021/09/24 06:40:11;;;;;;;9.67;3.17;;;13.30;99.90;;;;;;5981535;23;20639;-73
2021/09/24 06:42:37;;;;;;;18.03;4.23;;;13.40;99.90;;;;;;6005352;23;20545;-72
2021/09/24 06:45:08;;;;;;;9.23;3.70;;;13.40;99.90;;;;;;6004789;23;20546;-73
2021/09/24 06:47:34;;;;;;;11.23;2.97;;;13.50;99.90;;;;;;6006804;23;20228;-73
2021/09/24 06:50:00;;;;;;;18.90;4.03;;;13.50;99.90;;;;;;6001474;23;21159;-72
2021/09/24 06:52:26;;;;;;;16.00;3.33;;;13.50;99.90;;;;;;5989648;23;20177;-73
2021/09/24 06:54:51;;;;;;;17.37;3.97;;;13.50;99.90;;;;;;6009523;23;20161;-72
2021/09/24 06:57:18;;;;;;;16.90;3.30;;;13.60;99.90;;;;;;6006564;23;20897;-72
2021/09/24 06:59:43;;;;;;;11.20;3.17;;;13.60;99.90;;;;;;6005491;23;20192;-72
2021/09/24 07:02:09;;;;;;;14.20;4.00;;;13.60;99.90;;;;;;6005509;23;20606;-72
2021/09/24 07:04:35;;;;;;;11.87;3.70;;;13.70;99.90;;;;;;6004534;23;20157;-72
2021/09/24 07:07:00;;;;;;;9.80;3.37;;;13.60;99.90;;;;;;6002920;23;20601;-72
2021/09/24 07:09:26;;;;;;;11.90;3.90;;;13.60;99.90;;;;;;5978645;23;20200;-72
2021/09/24 07:11:51;;;;;;;6.30;3.70;;;13.70;99.90;;;;;;6005368;23;20188;-72
2021/09/24 07:14:18;;;;;;;16.90;4.13;;;13.70;99.90;;;;;;6005070;23;20165;-72
2021/09/24 07:16:44;;;;;;;11.00;3.37;;;13.70;99.90;;;;;;6004919;23;20283;-72
2021/09/24 07:19:10;;;;;;;11.30;3.73;;;13.80;99.90;;;;;;6004602;23;20589;-73
2021/09/24 07:21:36;;;;;;;11.60;4.77;;;13.80;99.90;;;;;;6005700;23;20578;-73
2021/09/24 07:24:02;;;;;;;13.70;4.13;;;13.90;99.90;;;;;;6003745;23;20975;-73
2021/09/24 07:26:28;;;;;;;10.87;4.13;;;13.90;99.90;;;;;;6004365;23;20193;-73
2021/09/24 07:28:55;;;;;;;15.10;4.97;;;14.00;99.90;;;;;;6006310;23;20587;-73
2021/09/24 07:31:22;;;;;;;10.30;4.90;;;14.00;99.90;;;;;;5980108;23;20581;-73
2021/09/24 07:33:48;;;;;;;11.00;5.40;;;14.10;99.90;;;;;;6005322;23;20582;-73
2021/09/24 07:36:16;;;;;;;12.20;5.40;;;14.20;99.90;;;;;;6003891;23;20604;-72
2021/09/24 07:38:45;;;;;;;10.83;5.13;;;14.20;99.90;;;;;;6004768;23;20574;-73
2021/09/24 07:41:12;;;;;;;12.80;6.33;;;14.30;99.90;;;;;;6005879;23;20554;-72
2021/09/24 07:43:38;;;;;;;15.27;6.13;;;14.30;99.90;;;;;;6009859;23;20618;-73
2021/09/24 07:46:04;;;;;;;11.93;5.43;;;14.40;99.90;;;;;;6005669;23;20597;-72
2021/09/24 07:48:30;;;;;;;10.87;5.07;;;14.40;99.90;;;;;;6004966;23;20208;-73
2021/09/24 07:50:55;;;;;;;7.70;4.80;;;14.50;99.90;;;;;;5980277;23;20573;-72
2021/09/24 07:53:21;;;;;;;10.80;5.27;;;14.50;99.90;;;;;;6006154;23;20180;-72
2021/09/24 07:55:46;;;;;;;10.90;5.30;;;14.60;99.90;;;;;;5979117;23;20215;-73
2021/09/24 07:58:12;;;;;;;8.50;5.23;;;14.70;99.90;;;;;;6004601;23;20568;-73
2021/09/24 08:00:38;;;;;;;11.10;6.37;;;14.80;99.90;;;;;;5980475;23;20283;-72
2021/09/24 08:03:04;;;;;;;6.50;5.23;;;14.80;99.90;;;;;;6005006;23;20165;-74
2021/09/24 08:05:31;;;;;;;10.57;5.23;;;14.90;99.90;;;;;;6004557;23;20168;-73
2021/09/24 08:07:56;;;;;;;9.33;4.60;;;15.00;99.90;;;;;;6005004;23;20932;-73
2021/09/24 08:10:24;;;;;;;9.90;5.07;;;15.00;99.90;;;;;;6004946;23;20587;-73
2021/09/24 08:12:50;;;;;;;9.60;4.60;;;15.10;99.90;;;;;;6004954;23;20612;-73
2021/09/24 08:15:16;;;;;;;5.90;4.43;;;15.20;99.90;;;;;;6002977;23;20534;-73
2021/09/24 08:17:41;;;;;;;11.90;5.60;;;15.30;99.90;;;;;;6004247;23;20601;-73
2021/09/24 08:20:07;;;;;;;13.10;5.30;;;15.30;99.90;;;;;;6004856;23;20275;-73
2021/09/24 08:22:38;;;;;;;8.90;5.50;;;15.40;99.90;;;;;;6005803;23;20236;-73
2021/09/24 08:25:08;;;;;;;8.60;4.93;;;15.40;99.90;;;;;;6002341;23;20537;-73
2021/09/24 08:27:34;;;;;;;7.67;4.93;;;15.50;99.90;;;;;;6003865;23;20609;-73
2021/09/24 08:30:00;;;;;;;8.37;4.70;;;15.50;99.90;;;;;;6004870;23;21029;-73
2021/09/24 08:32:25;;;;;;;8.63;4.33;;;15.60;99.90;;;;;;6004665;23;20236;-73
2021/09/24 08:34:51;;;;;;;7.33;4.43;;;15.70;99.90;;;;;;5978228;23;20601;-73
2021/09/24 08:37:16;;;;;;;9.83;4.60;;;15.80;99.90;;;;;;6003662;23;20672;-73
2021/09/24 08:39:42;;;;;;;6.83;3.73;;;15.80;99.90;;;;;;5980587;23;20295;-73
2021/09/24 08:42:08;;;;;;;7.33;3.70;;;15.80;99.90;;;;;;6005708;23;20238;-73
2021/09/24 08:44:33;;;;;;;5.17;4.17;;;15.80;99.90;;;;;;6004533;23;20153;-73
2021/09/24 08:47:00;;;;;;;7.00;4.23;;;15.90;99.90;;;;;;6003545;23;20215;-73
2021/09/24 08:49:26;;;;;;;7.50;3.60;;;15.70;99.90;;;;;;5979971;23;20185;-73
2021/09/24 08:51:51;;;;;;;10.13;3.83;;;15.70;99.90;;;;;;6005900;23;21139;-73
2021/09/24 08:54:18;;;;;;;9.43;3.73;;;15.80;99.90;;;;;;6006427;23;20161;-73
2021/09/24 08:56:43;;;;;;;6.33;3.30;;;15.80;99.90;;;;;;5980234;23;20235;-73
2021/09/24 08:59:09;;;;;;;5.20;3.33;;;15.90;99.90;;;;;;6007245;23;20928;-73
2021/09/24 09:01:35;;;;;;;8.00;3.60;;;16.00;99.90;;;;;;5995943;23;20165;-73
2021/09/24 09:04:00;;;;;;;7.97;3.63;;;16.10;99.90;;;;;;6002883;23;20229;-73
2021/09/24 09:06:28;;;;;;;7.70;3.80;;;16.10;99.90;;;;;;5993199;23;20220;-73
2021/09/24 09:09:05;;;;;;;6.20;3.60;;;16.10;99.90;;;;;;6010049;23;20162;-74
2021/09/24 09:11:31;;;;;;;6.83;3.33;;;16.20;99.90;;;;;;6006902;23;20558;-73
2021/09/24 09:13:59;;;;;;;6.37;3.20;;;16.20;99.90;;;;;;6008239;23;20571;-73
2021/09/24 09:16:32;;;;;;;7.47;3.23;;;16.20;99.90;;;;;;5980611;23;20916;-73
2021/09/24 09:19:15;;;;;;;6.67;3.70;;;16.30;99.90;;;;;;6006698;23;20643;-73
2021/09/24 09:21:43;;;;;;;8.63;3.93;;;16.40;99.90;;;;;;6006316;23;20852;-73
2021/09/24 09:24:24;;;;;;;7.10;3.90;;;16.50;99.90;;;;;;5981928;23;20605;-73
2021/09/24 09:27:19;;;;;;;7.20;3.97;;;16.50;99.90;;;;;;6004492;23;20640;-73
2021/09/24 09:30:13;;;;;;;7.90;3.70;;;16.60;99.90;;;;;;6007504;23;21041;-73
2021/09/24 09:32:40;;;;;;;5.50;3.73;;;16.70;99.90;;;;;;5981778;23;20673;-73
2021/09/24 09:35:07;;;;;;;4.80;3.43;;;16.70;99.90;;;;;;6006826;23;21099;-73
2021/09/24 09:37:38;;;;;;;11.03;3.60;;;16.80;99.90;;;;;;6005584;23;20672;-73
2021/09/24 09:40:08;;;;;;;5.07;3.50;;;16.80;99.90;;;;;;6006963;23;20590;-73
2021/09/24 09:42:36;;;;;;;7.03;3.50;;;16.80;99.90;;;;;;5981301;23;20673;-73
2021/09/24 09:45:02;;;;;;;6.27;3.30;;;16.80;99.90;;;;;;6005863;23;20659;-73
2021/09/24 09:47:30;;;;;;;6.13;3.80;;;16.90;99.90;;;;;;6005166;23;20617;-73
2021/09/24 09:50:11;;;;;;;8.50;4.00;;;16.80;99.90;;;;;;6006290;23;20545;-73
2021/09/24 09:53:07;;;;;;;5.30;3.33;;;16.70;99.90;;;;;;6006794;23;20626;-73
2021/09/24 09:55:47;;;;;;;4.80;3.80;;;16.70;99.90;;;;;;5961800;23;20593;-73
2021/09/24 09:58:12;;;;;;;8.23;3.63;;;16.80;99.90;;;;;;6006488;23;20558;-73
2021/09/24 10:01:00;;;;;;;4.80;3.70;;;16.80;99.90;;;;;;6006759;23;20590;-73
2021/09/24 10:03:35;;;;;;;5.60;3.90;;;16.80;99.90;;;;;;5980350;23;20161;-73
2021/09/24 10:06:03;;;;;;;8.43;4.10;;;16.80;99.90;;;;;;5980073;23;20589;-72
2021/09/24 10:08:33;;;;;;;6.33;3.80;;;16.80;99.90;;;;;;6006198;23;20617;-72
2021/09/24 10:11:14;;;;;;;4.77;3.83;;;16.80;99.90;;;;;;6004927;23;20625;-73
2021/09/24 10:13:59;;;;;;;5.00;3.73;;;16.70;99.90;;;;;;5984740;23;20596;-72
2021/09/24 10:16:28;;;;;;;6.30;3.90;;;16.80;99.90;;;;;;6010354;23;20700;-73
2021/09/24 10:18:54;;;;;;;8.23;3.83;;;16.80;99.90;;;;;;6007517;23;20590;-72
2021/09/24 10:21:20;;;;;;;6.93;4.10;;;16.80;99.90;;;;;;6006385;23;20542;-73
2021/09/24 10:23:46;;;;;;;5.00;3.67;;;16.80;99.90;;;;;;6006601;23;20637;-73
2021/09/24 10:26:33;;;;;;;9.80;4.17;;;16.90;99.90;;;;;;5979885;23;20597;-73
2021/09/24 10:29:22;;;;;;;5.53;3.63;;;16.80;99.90;;;;;;6004784;23;20503;-73
2021/09/24 10:31:50;;;;;;;9.33;3.87;;;16.80;99.90;;;;;;6026362;23;20573;-72
2021/09/24 10:34:18;;;;;;;7.73;4.27;;;16.80;99.90;;;;;;6009710;23;20584;-73
2021/09/24 10:36:50;;;;;;;6.67;3.87;;;16.80;99.90;;;;;;6003941;23;20613;-72
2021/09/24 10:39:31;;;;;;;6.03;3.27;;;16.80;99.90;;;;;;6005881;23;20646;-72
2021/09/24 10:42:24;;;;;;;7.60;4.13;;;16.90;99.90;;;;;;6005757;23;20875;-72
2021/09/24 10:45:07;;;;;;;5.60;3.50;;;16.80;99.90;;;;;;5980028;23;20649;-72
2021/09/24 10:47:57;;;;;;;4.53;3.37;;;16.90;99.90;;;;;;6004763;23;20605;-72
2021/09/24 10:50:28;;;;;;;5.40;3.73;;;16.90;99.90;;;;;;6011780;23;20883;-72
2021/09/24 10:55:39;;;;;;;8.37;4.00;;;16.90;99.90;;;;;;6006868;23;20602;-72
2021/09/24 10:58:05;;;;;;;5.17;4.07;;;17.00;99.90;;;;;;5981661;23;20625;-72
2021/09/24 11:00:33;;;;;;;5.40;4.40;;;17.00;99.90;;;;;;6007407;23;20608;-72
2021/09/24 11:03:12;;;;;;;5.33;4.00;;;17.00;99.90;;;;;;6008917;23;20662;-72
2021/09/24 11:05:58;;;;;;;7.67;3.63;;;17.00;99.90;;;;;;6006615;23;20557;-72
2021/09/24 11:08:33;;;;;;;7.30;4.30;;;17.00;99.90;;;;;;5982053;23;20685;-72
2021/09/24 11:11:04;;;;;;;6.03;4.00;;;17.10;99.90;;;;;;6006655;23;21182;-72
2021/09/24 11:13:32;;;;;;;10.37;4.80;;;17.10;99.90;;;;;;5982992;23;20571;-72
2021/09/24 11:16:03;;;;;;;7.70;4.03;;;17.10;99.90;;;;;;6004339;23;20589;-73
2021/09/24 11:18:55;;;;;;;6.90;4.83;;;17.10;99.90;;;;;;6007346;23;20562;-72
2021/09/24 11:21:45;;;;;;;9.43;4.67;;;17.20;99.90;;;;;;5978995;23;21003;-72
2021/09/24 11:24:31;;;;;;;7.80;4.17;;;17.20;99.90;;;;;;6006767;23;20577;-73
2021/09/24 11:26:59;;;;;;;9.00;4.63;;;17.30;99.90;;;;;;6026588;23;20753;-73
2021/09/24 11:29:28;;;;;;;7.17;5.33;;;17.20;99.90;;;;;;6018535;23;21098;-72
2021/09/24 11:31:53;;;;;;;7.27;5.33;;;17.20;99.90;;;;;;6008844;23;20640;-73
2021/09/24 11:37:16;;;;;;;8.23;5.40;;;17.20;99.90;;;;;;6004855;23;20577;-73
2021/09/24 11:39:42;;;;;;;8.50;6.13;;;17.20;99.90;;;;;;5982295;23;21231;-73
2021/09/24 11:42:09;;;;;;;7.37;5.33;;;17.20;99.90;;;;;;6006685;23;20554;-73
2021/09/24 11:44:37;;;;;;;11.33;6.50;;;17.30;99.90;;;;;;6006528;23;20538;-73
2021/09/24 11:47:23;;;;;;;10.37;5.60;;;17.30;99.90;;;;;;5980712;23;20700;-73
2021/09/24 11:49:56;;;;;;;7.23;5.07;;;17.40;99.90;;;;;;6011727;23;20514;-73
2021/09/24 11:52:39;;;;;;;11.70;5.40;;;17.40;99.90;;;;;;6009569;23;20546;-72
2021/09/24 11:55:29;;;;;;;9.90;6.10;;;17.50;99.90;;;;;;6021652;23;20717;-73
2021/09/24 11:58:06;;;;;;;10.30;5.60;;;17.60;99.90;;;;;;6026639;23;21182;-72
2021/09/24 12:00:38;;;;;;;7.23;5.80;;;17.60;99.90;;;;;;6000753;23;20989;-72
2021/09/24 12:03:10;;;;;;;11.17;6.27;;;17.70;99.90;;;;;;6009901;23;20531;-73
2021/09/24 12:05:37;;;;;;;7.37;5.50;;;17.70;99.90;;;;;;6006442;23;20869;-72
2021/09/24 12:08:11;;;;;;;6.33;5.70;;;17.80;99.90;;;;;;6007989;23;21126;-72
2021/09/24 12:10:36;;;;;;;8.73;6.10;;;17.80;99.90;;;;;;5981634;23;20672;-72
2021/09/24 12:13:09;;;;;;;8.47;6.03;;;17.80;99.90;;;;;;6006858;23;20596;-72
2021/09/24 12:16:09;;;;;;;7.00;6.30;;;17.90;99.90;;;;;;5982104;23;20161;-72
2021/09/24 12:18:47;;;;;;;6.37;5.40;;;17.90;99.90;;;;;;5930243;23;20640;-72
2021/09/24 12:21:15;;;;;;;9.23;6.27;;;18.10;99.90;;;;;;6006231;23;20566;-72
2021/09/24 12:23:41;;;;;;;10.27;6.50;;;18.20;99.90;;;;;;6006520;23;20553;-72
2021/09/24 12:26:08;;;;;;;9.20;5.47;;;18.20;99.90;;;;;;5980604;23;20605;-72
2021/09/24 12:28:35;;;;;;;8.30;5.90;;;18.20;99.90;;;;;;6008011;23;21072;-72
2021/09/24 12:31:03;;;;;;;10.67;6.00;;;18.30;99.90;;;;;;6007267;23;20550;-72
2021/09/24 12:33:28;;;;;;;6.87;5.57;;;18.40;99.90;;;;;;6003977;23;21177;-71
2021/09/24 12:35:56;;;;;;;7.83;5.27;;;18.30;99.90;;;;;;5980370;23;20688;-72
2021/09/24 12:38:31;;;;;;;6.20;5.57;;;18.20;99.90;;;;;;6007364;23;20188;-71
2021/09/24 12:41:13;;;;;;;7.20;5.50;;;18.30;99.90;;;;;;6007669;23;20644;-71
2021/09/24 12:43:39;;;;;;;8.93;5.77;;;18.30;99.90;;;;;;5980321;23;20573;-71
2021/09/24 12:46:07;;;;;;;6.37;5.53;;;18.30;99.90;;;;;;5983632;23;20664;-71
2021/09/24 12:48:45;;;;;;;7.43;5.77;;;18.30;99.90;;;;;;6004810;23;20562;-70
2021/09/24 12:51:12;;;;;;;7.90;5.40;;;18.40;99.90;;;;;;6007914;23;21253;-70
2021/09/24 12:53:40;;;;;;;6.93;5.70;;;18.50;99.90;;;;;;6006558;23;20549;-70